createdAt,value
2022-10-17T00:00:56.323Z,21.70
2022-10-17T00:04:11.319Z,21.30
2022-10-17T00:07:17.990Z,24.40
2022-10-17T00:10:24.890Z,19.30
2022-10-17T00:16:39.824Z,22.60
2022-10-17T00:19:46.515Z,25.40
2022-10-17T00:22:53.552Z,22.10
2022-10-17T00:26:05.999Z,21.90
2022-10-17T00:29:12.932Z,21.40
2022-10-17T00:32:20.090Z,23.20
2022-10-17T00:35:27.219Z,24.90
2022-10-17T00:38:33.830Z,25.90
2022-10-17T00:41:40.828Z,25.90
2022-10-17T00:45:22.647Z,26.70
2022-10-17T00:48:29.478Z,25.60
2022-10-17T00:51:41.992Z,26.30
2022-10-17T00:54:55.594Z,25.10
2022-10-17T00:58:06.230Z,24.60
2022-10-17T01:01:12.789Z,25.20
2022-10-17T01:04:20.340Z,26.70
2022-10-17T01:07:27.900Z,25.80
2022-10-17T01:10:41.718Z,26.10
2022-10-17T01:13:54.635Z,26.00
2022-10-17T01:17:10.837Z,24.40
2022-10-17T01:20:49.249Z,24.90
2022-10-17T01:24:38.817Z,23.10
2022-10-17T01:27:59.394Z,25.30
2022-10-17T01:31:14.029Z,24.70
2022-10-17T01:34:29.651Z,24.70
2022-10-17T01:37:43.596Z,24.00
2022-10-17T01:40:53.603Z,24.50
2022-10-17T01:44:06.369Z,26.00
2022-10-17T01:47:18.792Z,26.10
2022-10-17T01:50:29.743Z,23.70
2022-10-17T01:53:40.017Z,25.50
2022-10-17T01:56:49.819Z,24.40
2022-10-17T01:59:58.276Z,23.80
2022-10-17T02:03:08.774Z,23.50
2022-10-17T02:06:19.669Z,22.50
2022-10-17T02:09:28.260Z,23.90
2022-10-17T02:12:50.922Z,25.20
2022-10-17T02:16:08.233Z,23.70
2022-10-17T02:19:31.859Z,26.20
2022-10-17T02:22:48.767Z,23.30
2022-10-17T02:26:02.885Z,22.40
2022-10-17T02:29:16.012Z,23.00
2022-10-17T02:32:30.027Z,27.20
2022-10-17T02:35:42.244Z,23.50
2022-10-17T02:38:50.696Z,25.60
2022-10-17T02:41:59.926Z,24.50
2022-10-17T02:45:10.159Z,24.30
2022-10-17T02:48:23.570Z,24.90
2022-10-17T02:51:38.160Z,26.10
2022-10-17T02:54:48.965Z,22.60
2022-10-17T02:58:00.250Z,23.00
2022-10-17T03:01:07.486Z,24.30
2022-10-17T03:04:16.202Z,23.50
2022-10-17T03:07:22.727Z,23.40
2022-10-17T03:10:29.377Z,25.90
2022-10-17T03:13:39.015Z,25.10
2022-10-17T03:16:46.715Z,26.70
2022-10-17T03:19:53.841Z,23.90
2022-10-17T03:23:00.812Z,24.80
2022-10-17T03:26:08.614Z,26.90
2022-10-17T03:29:18.421Z,25.70
2022-10-17T03:32:27.981Z,26.90
2022-10-17T03:35:35.041Z,26.70
2022-10-17T03:38:42.904Z,28.00
2022-10-17T03:41:52.735Z,23.30
2022-10-17T03:45:00.039Z,26.50
2022-10-17T03:48:08.417Z,27.00
2022-10-17T03:51:16.673Z,30.60
2022-10-17T03:54:29.970Z,28.60
2022-10-17T03:57:42.154Z,27.40
2022-10-17T04:00:52.668Z,27.30
2022-10-17T04:03:59.325Z,26.60
2022-10-17T04:07:09.318Z,26.90
2022-10-17T04:10:17.974Z,27.60
2022-10-17T04:13:24.800Z,27.60
2022-10-17T04:16:31.994Z,26.30
2022-10-17T04:19:44.150Z,31.00
2022-10-17T04:22:50.730Z,28.00
2022-10-17T04:25:59.882Z,26.70
2022-10-17T04:32:12.908Z,26.70
2022-10-17T04:35:29.521Z,27.00
2022-10-17T04:38:41.574Z,26.90
2022-10-17T04:41:50.398Z,29.90
2022-10-17T04:44:57.003Z,31.70
2022-10-17T04:48:04.743Z,27.50
2022-10-17T04:51:15.898Z,29.20
2022-10-17T04:54:49.390Z,29.80
2022-10-17T04:57:58.045Z,30.40
2022-10-17T05:01:11.907Z,31.70
2022-10-17T05:04:23.920Z,30.30
2022-10-17T05:07:32.188Z,32.30
2022-10-17T05:10:51.236Z,30.90
2022-10-17T05:14:00.420Z,32.00
2022-10-17T05:17:07.191Z,35.00
2022-10-17T05:20:16.508Z,33.60
2022-10-17T05:23:23.344Z,34.20
2022-10-17T05:26:30.419Z,39.50
2022-10-17T05:29:39.190Z,35.00
2022-10-17T05:32:55.599Z,33.80
2022-10-17T05:36:02.995Z,35.00
2022-10-17T05:39:09.919Z,32.60
2022-10-17T05:42:17.220Z,34.20
2022-10-17T05:45:23.986Z,31.30
2022-10-17T05:48:30.749Z,34.70
2022-10-17T05:54:49.936Z,32.40
2022-10-17T05:57:56.741Z,33.90
2022-10-17T06:01:08.228Z,33.10
2022-10-17T06:04:17.547Z,30.70
2022-10-17T06:07:24.328Z,30.60
2022-10-17T06:10:31.762Z,32.10
2022-10-17T06:13:39.280Z,32.80
2022-10-17T06:16:51.687Z,30.40
2022-10-17T06:19:58.596Z,33.30
2022-10-17T06:23:07.905Z,36.70
2022-10-17T06:26:28.126Z,33.20
2022-10-17T06:29:35.074Z,34.20
2022-10-17T06:32:41.983Z,35.60
2022-10-17T06:35:55.813Z,31.60
2022-10-17T06:39:03.751Z,34.30
2022-10-17T06:42:16.176Z,32.30
2022-10-17T06:45:48.541Z,31.90
2022-10-17T06:48:58.541Z,37.50
2022-10-17T06:52:28.905Z,36.00
2022-10-17T06:56:03.098Z,30.80
2022-10-17T06:59:38.901Z,32.40
2022-10-17T07:02:54.662Z,36.10
2022-10-17T07:06:01.650Z,35.80
2022-10-17T07:09:09.606Z,33.00
2022-10-17T07:12:17.107Z,32.80
2022-10-17T07:15:25.135Z,32.60
2022-10-17T07:18:31.793Z,30.40
2022-10-17T07:21:39.351Z,33.80
2022-10-17T07:24:47.644Z,33.80
2022-10-17T07:27:59.791Z,33.80
2022-10-17T07:31:10.606Z,33.80
2022-10-17T07:34:17.449Z,34.60
2022-10-17T07:37:24.623Z,31.50
2022-10-17T07:40:34.875Z,31.30
2022-10-17T07:43:43.041Z,33.90
2022-10-17T07:46:50.308Z,33.40
2022-10-17T07:49:57.879Z,29.10
2022-10-17T07:53:04.598Z,31.30
2022-10-17T07:56:12.469Z,29.30
2022-10-17T07:59:20.125Z,32.40
2022-10-17T08:02:28.771Z,31.80
2022-10-17T08:05:36.528Z,32.90
2022-10-17T08:08:43.752Z,31.50
2022-10-17T08:11:50.679Z,34.20
2022-10-17T08:14:57.256Z,30.60
2022-10-17T08:18:03.914Z,29.60
2022-10-17T08:21:11.262Z,27.60
2022-10-17T08:24:17.969Z,29.60
2022-10-17T08:27:25.580Z,32.40
2022-10-17T08:30:32.499Z,30.50
2022-10-17T08:33:39.789Z,34.10
2022-10-17T08:36:46.532Z,32.60
2022-10-17T08:39:53.070Z,30.30
2022-10-17T08:43:11.922Z,32.20
2022-10-17T08:46:19.644Z,29.70
2022-10-17T08:49:34.986Z,28.90
2022-10-17T08:52:50.743Z,31.90
2022-10-17T08:55:58.952Z,29.40
2022-10-17T08:59:12.409Z,28.60
2022-10-17T09:02:32.578Z,29.70
2022-10-17T09:05:49.425Z,28.20
2022-10-17T09:09:11.215Z,28.90
2022-10-17T09:12:23.314Z,31.40
2022-10-17T09:15:49.386Z,26.90
2022-10-17T09:19:05.136Z,28.20
2022-10-17T09:22:18.044Z,26.50
2022-10-17T09:25:25.040Z,25.30
2022-10-17T09:28:35.261Z,28.70
2022-10-17T09:31:48.470Z,27.20
2022-10-17T09:34:55.809Z,24.80
2022-10-17T09:38:02.555Z,25.50
2022-10-17T09:41:43.146Z,23.40
2022-10-17T09:44:51.792Z,25.00
2022-10-17T09:48:07.145Z,24.70
2022-10-17T09:51:25.754Z,23.80
2022-10-17T09:54:42.686Z,23.70
2022-10-17T09:57:58.203Z,23.00
2022-10-17T10:01:23.725Z,22.90
2022-10-17T10:04:41.538Z,22.50
2022-10-17T10:08:07.656Z,21.80
2022-10-17T10:11:15.152Z,22.90
2022-10-17T10:14:25.284Z,23.30
2022-10-17T10:17:38.271Z,20.80
2022-10-17T10:20:46.918Z,21.10
2022-10-17T10:24:15.539Z,20.90
2022-10-17T10:27:23.076Z,23.90
2022-10-17T10:30:36.131Z,21.40
2022-10-17T10:33:50.525Z,19.40
2022-10-17T10:37:03.766Z,19.40
2022-10-17T10:40:21.193Z,18.60
2022-10-17T10:43:34.330Z,21.50
2022-10-17T10:46:43.741Z,18.20
2022-10-17T10:49:51.469Z,20.20
2022-10-17T10:53:10.982Z,24.10
2022-10-17T10:56:21.668Z,17.70
2022-10-17T10:59:37.037Z,18.20
2022-10-17T11:02:54.213Z,19.80
2022-10-17T11:06:06.533Z,19.60
2022-10-17T11:09:28.826Z,18.20
2022-10-17T11:16:00.280Z,17.30
2022-10-17T11:19:14.683Z,16.90
2022-10-17T11:22:29.304Z,19.50
2022-10-17T11:25:38.792Z,18.30
2022-10-17T11:28:45.739Z,17.00
2022-10-17T11:31:58.238Z,17.00
2022-10-17T11:35:09.239Z,16.40
2022-10-17T11:38:22.010Z,17.40
2022-10-17T11:41:35.261Z,16.50
2022-10-17T11:44:42.829Z,16.20
2022-10-17T11:47:51.916Z,17.20
2022-10-17T11:54:38.860Z,15.70
2022-10-17T11:57:53.599Z,19.70
2022-10-17T12:01:08.329Z,17.40
2022-10-17T12:04:25.463Z,16.80
2022-10-17T12:07:39.479Z,18.10
2022-10-17T12:10:53.400Z,16.30
2022-10-17T12:14:04.926Z,17.20
2022-10-17T12:17:33.102Z,16.90
2022-10-17T12:20:41.450Z,18.60
2022-10-17T12:23:55.437Z,15.40
2022-10-17T12:27:31.812Z,15.40
2022-10-17T12:30:50.418Z,17.50
2022-10-17T12:34:00.086Z,15.90
2022-10-17T12:37:15.103Z,16.30
2022-10-17T12:40:58.700Z,16.10
2022-10-17T12:44:39.371Z,16.80
2022-10-17T12:47:47.167Z,15.20
2022-10-17T12:54:37.950Z,15.20
2022-10-17T12:57:58.714Z,14.40
2022-10-17T13:01:23.547Z,17.60
2022-10-17T13:04:32.218Z,16.20
2022-10-17T13:07:42.121Z,14.40
2022-10-17T13:10:52.554Z,16.30
2022-10-17T13:14:02.658Z,14.90
2022-10-17T13:17:27.696Z,13.10
2022-10-17T13:20:35.071Z,19.50
2022-10-17T13:23:41.828Z,16.00
2022-10-17T13:26:48.809Z,14.10
2022-10-17T13:29:57.408Z,14.80
2022-10-17T13:33:04.952Z,14.50
2022-10-17T13:36:19.259Z,15.90
2022-10-17T13:39:44.932Z,15.30
2022-10-17T13:42:53.655Z,14.40
2022-10-17T13:46:32.526Z,16.20
2022-10-17T13:49:36.297Z,18.10
2022-10-17T13:52:43.078Z,14.90
2022-10-17T13:56:27.882Z,15.80
2022-10-17T13:59:33.679Z,16.50
2022-10-17T14:02:41.842Z,16.80
2022-10-17T14:06:12.359Z,16.50
2022-10-17T14:09:24.638Z,17.10
2022-10-17T14:12:31.398Z,17.80
2022-10-17T14:15:39.083Z,15.90
2022-10-17T14:18:50.763Z,18.30
2022-10-17T14:22:15.878Z,17.70
2022-10-17T14:25:35.769Z,17.40
2022-10-17T14:28:44.523Z,17.50
2022-10-17T14:31:53.631Z,18.10
2022-10-17T14:35:18.886Z,17.10
2022-10-17T14:38:31.410Z,18.40
2022-10-17T14:41:44.032Z,20.10
2022-10-17T14:44:55.455Z,17.50
2022-10-17T14:48:10.977Z,17.60
2022-10-17T14:51:19.777Z,19.10
2022-10-17T14:54:29.196Z,16.50
2022-10-17T14:57:46.453Z,18.80
2022-10-17T15:00:53.129Z,18.90
2022-10-17T15:03:59.747Z,21.10
2022-10-17T15:07:06.974Z,17.50
2022-10-17T15:10:27.096Z,18.90
2022-10-17T15:13:40.088Z,19.20
2022-10-17T15:16:49.357Z,19.50
2022-10-17T15:19:56.503Z,18.80
2022-10-17T15:23:04.130Z,18.50
2022-10-17T15:26:16.641Z,19.60
2022-10-17T15:29:23.304Z,19.70
2022-10-17T15:32:30.041Z,18.90
2022-10-17T15:35:37.704Z,20.90
2022-10-17T15:38:44.244Z,19.60
2022-10-17T15:41:50.993Z,20.30
2022-10-17T15:44:58.472Z,19.40
2022-10-17T15:48:08.592Z,20.10
2022-10-17T15:51:15.489Z,21.40
2022-10-17T15:54:22.345Z,21.00
2022-10-17T15:57:32.376Z,20.70
2022-10-17T16:00:41.591Z,21.80
2022-10-17T16:03:50.343Z,23.00
2022-10-17T16:06:57.020Z,20.40
2022-10-17T16:10:03.711Z,19.70
2022-10-17T16:13:19.359Z,20.90
2022-10-17T16:16:26.028Z,19.20
2022-10-17T16:19:32.884Z,21.20
2022-10-17T16:22:41.754Z,25.10
2022-10-17T16:28:55.025Z,19.20
2022-10-17T16:32:01.697Z,21.20
2022-10-17T16:35:10.100Z,21.20
2022-10-17T16:38:16.690Z,20.70
2022-10-17T16:41:26.257Z,26.50
2022-10-17T16:44:32.893Z,22.30
2022-10-17T16:47:39.537Z,23.00
2022-10-17T16:50:46.078Z,29.40
2022-10-17T16:53:56.706Z,27.10
2022-10-17T16:57:03.794Z,25.00
2022-10-17T17:00:14.096Z,24.50
2022-10-17T17:03:20.769Z,24.50
2022-10-17T17:06:29.109Z,24.20
2022-10-17T17:09:35.694Z,26.60
2022-10-17T17:12:42.393Z,27.30
2022-10-17T17:15:53.617Z,23.70
2022-10-17T17:19:04.720Z,27.00
2022-10-17T17:22:11.244Z,23.80
2022-10-17T17:25:17.956Z,25.60
2022-10-17T17:28:28.799Z,29.30
2022-10-17T17:31:39.012Z,26.20
2022-10-17T17:34:45.691Z,26.80
2022-10-17T17:37:52.326Z,26.00
2022-10-17T17:40:59.462Z,26.80
2022-10-17T17:44:09.212Z,32.60
2022-10-17T17:47:17.937Z,27.00
2022-10-17T17:50:24.721Z,28.10
2022-10-17T17:53:31.386Z,30.10
2022-10-17T17:56:38.164Z,31.90
2022-10-17T17:59:45.179Z,30.70
2022-10-17T18:02:53.917Z,29.70
2022-10-17T18:06:00.572Z,29.20
2022-10-17T18:09:08.238Z,28.00
2022-10-17T18:12:15.086Z,28.70
2022-10-17T18:15:21.984Z,28.40
2022-10-17T18:18:31.500Z,33.50
2022-10-17T18:21:38.656Z,30.20
2022-10-17T18:24:45.504Z,31.80
2022-10-17T18:27:52.255Z,31.30
2022-10-17T18:30:59.318Z,28.90
2022-10-17T18:34:09.606Z,31.20
2022-10-17T18:37:16.328Z,30.60
2022-10-17T18:40:22.974Z,31.10
2022-10-17T18:43:29.733Z,31.80
2022-10-17T18:46:41.009Z,29.90
2022-10-17T18:49:48.684Z,31.40
2022-10-17T18:52:55.337Z,32.50
2022-10-17T18:56:03.447Z,33.10
2022-10-17T18:59:10.484Z,33.30
2022-10-17T19:02:17.244Z,31.40
2022-10-17T19:05:23.903Z,33.60
2022-10-17T19:08:30.586Z,32.10
2022-10-17T19:11:39.062Z,36.00
2022-10-17T19:14:45.742Z,30.90
2022-10-17T19:17:52.380Z,29.80
2022-10-17T19:21:05.959Z,32.40
2022-10-17T19:24:15.839Z,30.00
2022-10-17T19:27:22.565Z,34.00
2022-10-17T19:30:29.171Z,31.60
2022-10-17T19:33:36.571Z,33.10
2022-10-17T19:36:43.838Z,33.20
2022-10-17T19:39:50.786Z,28.40
2022-10-17T19:42:57.463Z,30.50
2022-10-17T19:46:06.416Z,29.00
2022-10-17T19:49:14.621Z,27.20
2022-10-17T19:52:21.381Z,29.10
2022-10-17T19:55:28.161Z,29.50
2022-10-17T19:58:43.770Z,36.90
2022-10-17T20:01:50.567Z,31.60
2022-10-17T20:05:13.971Z,27.30
2022-10-17T20:11:36.108Z,29.40
2022-10-17T20:14:42.815Z,29.90
2022-10-17T20:17:49.404Z,30.00
2022-10-17T20:20:56.782Z,30.90
2022-10-17T20:24:06.002Z,27.80
2022-10-17T20:30:18.029Z,32.20
2022-10-17T20:33:27.309Z,34.50
2022-10-17T20:36:37.599Z,30.60
2022-10-17T20:39:45.184Z,32.00
2022-10-17T20:42:51.653Z,33.70
2022-10-17T20:46:04.606Z,32.50
2022-10-17T20:49:18.705Z,34.80
2022-10-17T20:52:25.372Z,33.10
2022-10-17T20:55:32.848Z,34.70
2022-10-17T20:58:39.751Z,31.40
2022-10-17T21:01:47.650Z,31.90
2022-10-17T21:04:54.424Z,33.10
2022-10-17T21:08:02.764Z,35.90
2022-10-17T21:11:14.867Z,32.40
2022-10-17T21:14:21.624Z,31.40
2022-10-17T21:17:28.695Z,34.40
2022-10-17T21:20:35.303Z,32.90
2022-10-17T21:23:42.993Z,34.90
2022-10-17T21:26:55.298Z,35.60
2022-10-17T21:30:05.312Z,31.40
2022-10-17T21:33:11.944Z,34.30
2022-10-17T21:36:19.260Z,33.40
2022-10-17T21:39:26.080Z,36.30
2022-10-17T21:42:33.078Z,35.40
2022-10-17T21:45:40.253Z,34.80
2022-10-17T21:48:48.816Z,36.40
2022-10-17T21:51:55.516Z,35.50
2022-10-17T21:55:02.129Z,34.10
2022-10-17T21:58:08.640Z,33.70
2022-10-17T22:01:17.506Z,33.00
2022-10-17T22:04:24.084Z,35.60
2022-10-17T22:07:30.797Z,35.20
2022-10-17T22:10:40.994Z,33.70
2022-10-17T22:13:48.083Z,35.00
2022-10-17T22:16:55.528Z,36.20
2022-10-17T22:20:04.151Z,36.10
2022-10-17T22:23:10.777Z,36.10
2022-10-17T22:26:17.861Z,33.90
2022-10-17T22:29:24.692Z,32.40
2022-10-17T22:32:31.359Z,32.70
2022-10-17T22:35:38.297Z,31.80
2022-10-17T22:38:44.934Z,29.70
2022-10-17T22:41:51.533Z,30.70
2022-10-17T22:44:58.305Z,32.00
2022-10-17T22:48:05.195Z,29.30
2022-10-17T22:51:12.355Z,32.40
2022-10-17T22:54:20.127Z,31.00
2022-10-17T22:57:26.746Z,33.90
2022-10-17T23:00:33.347Z,31.90
2022-10-17T23:03:40.014Z,34.00
2022-10-17T23:06:46.806Z,33.90
2022-10-17T23:09:53.768Z,34.20
2022-10-17T23:13:00.570Z,34.20
2022-10-17T23:16:07.986Z,34.00
2022-10-17T23:19:14.581Z,32.60
2022-10-17T23:22:21.314Z,38.40
2022-10-17T23:25:28.365Z,35.10
2022-10-17T23:28:35.760Z,33.30
2022-10-17T23:31:42.776Z,33.50
2022-10-17T23:34:49.758Z,32.00
2022-10-17T23:37:56.482Z,31.30
2022-10-17T23:41:06.903Z,34.80
2022-10-17T23:44:14.104Z,37.20
2022-10-17T23:47:21.151Z,33.00
2022-10-17T23:50:27.960Z,30.30
2022-10-17T23:53:34.921Z,30.80
2022-10-17T23:56:43.726Z,30.20
2022-10-17T23:59:50.547Z,32.60
